CheckWX is a tool to help pilots better visualize weather data.  It is not intended as a substitute for an official pre-flight weather briefing.

22:50:40 UTC

KHBI METAR
Asheboro Regional Airport
Asheboro, North Carolina, USA
Current

16 mins ago

KHBI 092235Z AUTO 02003KT 10SM SCT075 29/22 A2990 RMK AO2 T02870220
Observed
Jul-9 @ 22:35 UTC
Wind
  • 020° at 3 KTS
Visibility
10 SM
Flight Rules
VFR
Cloud Levels
  • Scattered at 7,500' AGL
Temperature
29°C / 84°F
Dewpoint
22°C / 72°F
Humidity
66%
Altimeter
29.9" Hg
Pressure
1012.52 hPa
Previous

36 mins ago

KHBI 092215Z AUTO 01005KT 10SM SCT075 29/22 A2990 RMK AO2 T02900215
Observed
Jul-9 @ 22:15 UTC
Wind
  • 010° at 5 KTS
Visibility
10 SM
Flight Rules
VFR
Cloud Levels
  • Scattered at 7,500' AGL
Temperature
29°C / 84°F
Dewpoint
22°C / 72°F
Humidity
66%
Altimeter
29.9" Hg
Pressure
1012.52 hPa
Previous

2 hours ago

KHBI 092115Z AUTO 02005KT 10SM SCT036 BKN050 OVC065 30/22 A2991 RMK AO2 T02980216
Observed
Jul-9 @ 21:15 UTC
Wind
  • 020° at 5 KTS
Visibility
10 SM
Flight Rules
VFR
Cloud Levels
  • Scattered at 3,600' AGL
  • Broken at 5,000' AGL
  • Overcast at 6,500' AGL
Temperature
30°C / 86°F
Dewpoint
22°C / 72°F
Humidity
62%
Altimeter
29.91" Hg
Pressure
1012.92 hPa